sensor_id;sensor_type;location;lat;lon;timestamp;temperature;humidity
782;DHT22;374;52.568;13.402;2024-01-27T00:01:43;7.10;99.90
782;DHT22;374;52.568;13.402;2024-01-27T00:04:09;7.10;99.90
782;DHT22;374;52.568;13.402;2024-01-27T00:06:34;7.10;99.90
782;DHT22;374;52.568;13.402;2024-01-27T00:09:00;7.10;99.90
782;DHT22;374;52.568;13.402;2024-01-27T00:11:25;7.20;99.90
782;DHT22;374;52.568;13.402;2024-01-27T00:13:51;7.10;99.90
782;DHT22;374;52.568;13.402;2024-01-27T00:16:16;7.10;99.90
782;DHT22;374;52.568;13.402;2024-01-27T00:18:42;7.10;99.90
782;DHT22;374;52.568;13.402;2024-01-27T00:21:08;7.00;99.90
782;DHT22;374;52.568;13.402;2024-01-27T00:23:33;7.00;99.90
782;DHT22;374;52.568;13.402;2024-01-27T00:26:02;7.00;99.90
782;DHT22;374;52.568;13.402;2024-01-27T00:28:28;7.10;99.90
782;DHT22;374;52.568;13.402;2024-01-27T00:30:54;7.10;99.90
782;DHT22;374;52.568;13.402;2024-01-27T00:33:21;7.10;99.90
782;DHT22;374;52.568;13.402;2024-01-27T00:35:47;7.10;99.90
782;DHT22;374;52.568;13.402;2024-01-27T00:38:12;7.00;99.90
782;DHT22;374;52.568;13.402;2024-01-27T00:40:38;7.00;99.90
782;DHT22;374;52.568;13.402;2024-01-27T00:43:03;7.00;99.90
782;DHT22;374;52.568;13.402;2024-01-27T00:45:29;7.00;99.90
782;DHT22;374;52.568;13.402;2024-01-27T00:47:56;7.00;99.90
782;DHT22;374;52.568;13.402;2024-01-27T00:50:21;7.00;99.90
782;DHT22;374;52.568;13.402;2024-01-27T00:52:47;6.90;99.90
782;DHT22;374;52.568;13.402;2024-01-27T00:55:12;6.90;99.90
782;DHT22;374;52.568;13.402;2024-01-27T00:57:38;7.00;99.90
782;DHT22;374;52.568;13.402;2024-01-27T01:00:05;6.90;99.90
782;DHT22;374;52.568;13.402;2024-01-27T01:02:32;6.90;99.90
782;DHT22;374;52.568;13.402;2024-01-27T01:04:57;6.90;99.90
782;DHT22;374;52.568;13.402;2024-01-27T01:07:23;6.90;99.90
782;DHT22;374;52.568;13.402;2024-01-27T01:09:48;6.90;99.90
782;DHT22;374;52.568;13.402;2024-01-27T01:12:14;6.90;99.90
782;DHT22;374;52.568;13.402;2024-01-27T01:14:40;6.90;99.90
782;DHT22;374;52.568;13.402;2024-01-27T01:17:06;6.90;99.90
782;DHT22;374;52.568;13.402;2024-01-27T01:19:31;6.90;99.90
782;DHT22;374;52.568;13.402;2024-01-27T01:21:56;6.90;99.90
782;DHT22;374;52.568;13.402;2024-01-27T01:24:22;6.90;99.90
782;DHT22;374;52.568;13.402;2024-01-27T01:26:47;7.00;99.90
782;DHT22;374;52.568;13.402;2024-01-27T01:29:13;6.90;99.90
782;DHT22;374;52.568;13.402;2024-01-27T01:31:41;6.90;99.90
782;DHT22;374;52.568;13.402;2024-01-27T01:34:07;6.90;99.90
782;DHT22;374;52.568;13.402;2024-01-27T01:36:33;6.90;99.90
782;DHT22;374;52.568;13.402;2024-01-27T01:38:58;6.80;99.90
782;DHT22;374;52.568;13.402;2024-01-27T01:41:24;6.90;99.90
782;DHT22;374;52.568;13.402;2024-01-27T01:43:49;6.90;99.90
782;DHT22;374;52.568;13.402;2024-01-27T01:46:15;6.80;99.90
782;DHT22;374;52.568;13.402;2024-01-27T01:48:40;6.80;99.90
782;DHT22;374;52.568;13.402;2024-01-27T01:51:06;6.80;99.90
782;DHT22;374;52.568;13.402;2024-01-27T01:53:32;6.80;99.90
782;DHT22;374;52.568;13.402;2024-01-27T01:55:57;6.80;99.90
782;DHT22;374;52.568;13.402;2024-01-27T01:58:23;6.90;99.90
782;DHT22;374;52.568;13.402;2024-01-27T02:00:49;6.80;99.90
782;DHT22;374;52.568;13.402;2024-01-27T02:03:14;6.80;99.90
782;DHT22;374;52.568;13.402;2024-01-27T02:05:40;6.80;99.90
782;DHT22;374;52.568;13.402;2024-01-27T02:08:05;6.80;99.90
782;DHT22;374;52.568;13.402;2024-01-27T02:10:31;6.80;99.90
782;DHT22;374;52.568;13.402;2024-01-27T02:13:03;6.80;99.90
782;DHT22;374;52.568;13.402;2024-01-27T02:15:28;6.80;99.90
782;DHT22;374;52.568;13.402;2024-01-27T02:18:00;6.80;99.90
782;DHT22;374;52.568;13.402;2024-01-27T02:20:28;6.80;99.90
782;DHT22;374;52.568;13.402;2024-01-27T02:22:54;6.80;99.90
782;DHT22;374;52.568;13.402;2024-01-27T02:25:19;6.80;99.90
782;DHT22;374;52.568;13.402;2024-01-27T02:27:45;6.80;99.90
782;DHT22;374;52.568;13.402;2024-01-27T02:30:10;6.80;99.90
782;DHT22;374;52.568;13.402;2024-01-27T02:32:36;6.80;99.90
782;DHT22;374;52.568;13.402;2024-01-27T02:35:01;6.80;99.90
782;DHT22;374;52.568;13.402;2024-01-27T02:37:27;6.80;99.90
782;DHT22;374;52.568;13.402;2024-01-27T02:39:52;6.80;99.90
782;DHT22;374;52.568;13.402;2024-01-27T02:42:18;6.80;99.90
782;DHT22;374;52.568;13.402;2024-01-27T02:44:43;6.70;99.90
782;DHT22;374;52.568;13.402;2024-01-27T02:47:09;6.70;99.90
782;DHT22;374;52.568;13.402;2024-01-27T02:49:34;6.80;99.90
782;DHT22;374;52.568;13.402;2024-01-27T02:52:00;6.80;99.90
782;DHT22;374;52.568;13.402;2024-01-27T02:54:25;6.80;99.90
782;DHT22;374;52.568;13.402;2024-01-27T02:56:52;6.70;99.90
782;DHT22;374;52.568;13.402;2024-01-27T02:59:18;6.70;99.90
782;DHT22;374;52.568;13.402;2024-01-27T03:01:43;6.70;99.90
782;DHT22;374;52.568;13.402;2024-01-27T03:04:09;6.80;99.90
782;DHT22;374;52.568;13.402;2024-01-27T03:06:34;6.70;99.90
782;DHT22;374;52.568;13.402;2024-01-27T03:09:00;6.70;99.90
782;DHT22;374;52.568;13.402;2024-01-27T03:11:25;6.70;99.90
782;DHT22;374;52.568;13.402;2024-01-27T03:13:51;6.70;99.90
782;DHT22;374;52.568;13.402;2024-01-27T03:16:16;6.70;99.90
782;DHT22;374;52.568;13.402;2024-01-27T03:18:43;6.70;99.90
782;DHT22;374;52.568;13.402;2024-01-27T03:21:09;6.70;99.90
782;DHT22;374;52.568;13.402;2024-01-27T03:23:34;6.70;99.90
782;DHT22;374;52.568;13.402;2024-01-27T03:26:02;6.70;99.90
782;DHT22;374;52.568;13.402;2024-01-27T03:28:27;6.70;99.90
782;DHT22;374;52.568;13.402;2024-01-27T03:30:53;6.70;99.90
782;DHT22;374;52.568;13.402;2024-01-27T03:33:18;6.70;99.90
782;DHT22;374;52.568;13.402;2024-01-27T03:35:44;6.70;99.90
782;DHT22;374;52.568;13.402;2024-01-27T03:38:09;6.70;99.90
782;DHT22;374;52.568;13.402;2024-01-27T03:40:35;6.70;99.90
782;DHT22;374;52.568;13.402;2024-01-27T03:43:00;6.70;99.90
782;DHT22;374;52.568;13.402;2024-01-27T03:45:26;6.60;99.90
782;DHT22;374;52.568;13.402;2024-01-27T03:47:51;6.70;99.90
782;DHT22;374;52.568;13.402;2024-01-27T03:50:17;6.60;99.90
782;DHT22;374;52.568;13.402;2024-01-27T03:52:42;6.60;99.90
782;DHT22;374;52.568;13.402;2024-01-27T03:55:08;6.60;99.90
782;DHT22;374;52.568;13.402;2024-01-27T03:57:33;6.60;99.90
782;DHT22;374;52.568;13.402;2024-01-27T03:59:59;6.60;99.90
782;DHT22;374;52.568;13.402;2024-01-27T04:02:24;6.60;99.90
782;DHT22;374;52.568;13.402;2024-01-27T04:04:50;6.50;99.90
782;DHT22;374;52.568;13.402;2024-01-27T04:07:15;6.60;99.90
782;DHT22;374;52.568;13.402;2024-01-27T04:09:41;6.50;99.90
782;DHT22;374;52.568;13.402;2024-01-27T04:12:07;6.50;99.90
782;DHT22;374;52.568;13.402;2024-01-27T04:14:33;6.50;99.90
782;DHT22;374;52.568;13.402;2024-01-27T04:16:58;6.50;99.90
782;DHT22;374;52.568;13.402;2024-01-27T04:19:24;6.50;99.90
782;DHT22;374;52.568;13.402;2024-01-27T04:21:49;6.50;99.90
782;DHT22;374;52.568;13.402;2024-01-27T04:24:14;6.50;99.90
782;DHT22;374;52.568;13.402;2024-01-27T04:26:40;6.50;99.90
782;DHT22;374;52.568;13.402;2024-01-27T04:29:05;6.50;99.90
782;DHT22;374;52.568;13.402;2024-01-27T04:31:31;6.50;99.90
782;DHT22;374;52.568;13.402;2024-01-27T04:33:57;6.50;99.90
782;DHT22;374;52.568;13.402;2024-01-27T04:36:27;6.40;99.90
782;DHT22;374;52.568;13.402;2024-01-27T04:38:54;6.50;99.90
782;DHT22;374;52.568;13.402;2024-01-27T04:41:19;6.50;99.90
782;DHT22;374;52.568;13.402;2024-01-27T04:43:45;6.50;99.90
782;DHT22;374;52.568;13.402;2024-01-27T04:46:10;6.50;99.90
782;DHT22;374;52.568;13.402;2024-01-27T04:48:35;6.50;99.90
782;DHT22;374;52.568;13.402;2024-01-27T04:51:01;6.50;99.90
782;DHT22;374;52.568;13.402;2024-01-27T04:53:26;6.50;99.90
782;DHT22;374;52.568;13.402;2024-01-27T04:55:52;6.50;99.90
782;DHT22;374;52.568;13.402;2024-01-27T04:58:17;6.50;99.90
782;DHT22;374;52.568;13.402;2024-01-27T05:00:43;6.40;99.90
782;DHT22;374;52.568;13.402;2024-01-27T05:03:08;6.50;99.90
782;DHT22;374;52.568;13.402;2024-01-27T05:05:41;6.50;99.90
782;DHT22;374;52.568;13.402;2024-01-27T05:08:06;6.40;99.90
782;DHT22;374;52.568;13.402;2024-01-27T05:10:32;6.40;99.90
782;DHT22;374;52.568;13.402;2024-01-27T05:12:57;6.50;99.90
782;DHT22;374;52.568;13.402;2024-01-27T05:15:22;6.40;99.90
782;DHT22;374;52.568;13.402;2024-01-27T05:17:48;6.40;99.90
782;DHT22;374;52.568;13.402;2024-01-27T05:20:14;6.40;99.90
782;DHT22;374;52.568;13.402;2024-01-27T05:22:39;6.40;99.90
782;DHT22;374;52.568;13.402;2024-01-27T05:25:05;6.50;99.90
782;DHT22;374;52.568;13.402;2024-01-27T05:27:30;6.50;99.90
782;DHT22;374;52.568;13.402;2024-01-27T05:29:56;6.40;99.90
782;DHT22;374;52.568;13.402;2024-01-27T05:32:21;6.50;99.90
782;DHT22;374;52.568;13.402;2024-01-27T05:34:47;6.50;99.90
782;DHT22;374;52.568;13.402;2024-01-27T05:37:12;6.40;99.90
782;DHT22;374;52.568;13.402;2024-01-27T05:39:38;6.50;99.90
782;DHT22;374;52.568;13.402;2024-01-27T05:42:04;6.50;99.90
782;DHT22;374;52.568;13.402;2024-01-27T05:44:29;6.40;99.90
782;DHT22;374;52.568;13.402;2024-01-27T05:46:55;6.40;99.90
782;DHT22;374;52.568;13.402;2024-01-27T05:49:21;6.40;99.90
782;DHT22;374;52.568;13.402;2024-01-27T05:51:46;6.40;99.90
782;DHT22;374;52.568;13.402;2024-01-27T05:54:13;6.40;99.90
782;DHT22;374;52.568;13.402;2024-01-27T05:56:42;6.40;99.90
782;DHT22;374;52.568;13.402;2024-01-27T05:59:07;6.40;99.90
782;DHT22;374;52.568;13.402;2024-01-27T06:01:33;6.40;99.90
782;DHT22;374;52.568;13.402;2024-01-27T06:03:58;6.40;99.90
782;DHT22;374;52.568;13.402;2024-01-27T06:06:24;6.40;99.90
782;DHT22;374;52.568;13.402;2024-01-27T06:08:49;6.40;99.90
782;DHT22;374;52.568;13.402;2024-01-27T06:11:23;6.40;99.90
782;DHT22;374;52.568;13.402;2024-01-27T06:13:48;6.40;99.90
782;DHT22;374;52.568;13.402;2024-01-27T06:16:18;6.30;99.90
782;DHT22;374;52.568;13.402;2024-01-27T06:18:44;6.40;99.90
782;DHT22;374;52.568;13.402;2024-01-27T06:21:10;6.40;99.90
782;DHT22;374;52.568;13.402;2024-01-27T06:23:36;6.40;99.90
782;DHT22;374;52.568;13.402;2024-01-27T06:26:08;6.40;99.90
782;DHT22;374;52.568;13.402;2024-01-27T06:28:34;6.40;99.90
782;DHT22;374;52.568;13.402;2024-01-27T06:31:00;6.40;99.90
782;DHT22;374;52.568;13.402;2024-01-27T06:33:26;6.40;99.90
782;DHT22;374;52.568;13.402;2024-01-27T06:35:51;6.40;99.90
782;DHT22;374;52.568;13.402;2024-01-27T06:38:16;6.40;99.90
782;DHT22;374;52.568;13.402;2024-01-27T06:40:42;6.40;99.90
782;DHT22;374;52.568;13.402;2024-01-27T06:43:08;6.40;99.90
782;DHT22;374;52.568;13.402;2024-01-27T06:45:34;6.40;99.90
782;DHT22;374;52.568;13.402;2024-01-27T06:48:00;6.40;99.90
782;DHT22;374;52.568;13.402;2024-01-27T06:50:25;6.40;99.90
782;DHT22;374;52.568;13.402;2024-01-27T06:52:50;6.40;99.90
782;DHT22;374;52.568;13.402;2024-01-27T06:55:16;6.40;99.90
782;DHT22;374;52.568;13.402;2024-01-27T06:57:41;6.40;99.90
782;DHT22;374;52.568;13.402;2024-01-27T07:00:07;6.40;99.90
782;DHT22;374;52.568;13.402;2024-01-27T07:02:33;6.40;99.90
782;DHT22;374;52.568;13.402;2024-01-27T07:04:58;6.40;99.90
782;DHT22;374;52.568;13.402;2024-01-27T07:07:28;6.40;99.90
782;DHT22;374;52.568;13.402;2024-01-27T07:09:55;6.40;99.90
782;DHT22;374;52.568;13.402;2024-01-27T07:12:21;6.40;99.90
782;DHT22;374;52.568;13.402;2024-01-27T07:14:46;6.40;99.90
782;DHT22;374;52.568;13.402;2024-01-27T07:17:12;6.30;99.90
782;DHT22;374;52.568;13.402;2024-01-27T07:19:37;6.40;99.90
782;DHT22;374;52.568;13.402;2024-01-27T07:22:03;6.40;99.90
782;DHT22;374;52.568;13.402;2024-01-27T07:24:32;6.40;99.90
782;DHT22;374;52.568;13.402;2024-01-27T07:27:00;6.40;99.90
782;DHT22;374;52.568;13.402;2024-01-27T07:29:25;6.40;99.90
782;DHT22;374;52.568;13.402;2024-01-27T07:31:51;6.40;99.90
782;DHT22;374;52.568;13.402;2024-01-27T07:34:17;6.40;99.90
782;DHT22;374;52.568;13.402;2024-01-27T07:36:43;6.40;99.90
782;DHT22;374;52.568;13.402;2024-01-27T07:39:09;6.40;99.90
782;DHT22;374;52.568;13.402;2024-01-27T07:41:34;6.40;99.90
782;DHT22;374;52.568;13.402;2024-01-27T07:44:10;6.40;99.90
782;DHT22;374;52.568;13.402;2024-01-27T07:46:37;6.40;99.90
782;DHT22;374;52.568;13.402;2024-01-27T07:49:03;6.30;99.90
782;DHT22;374;52.568;13.402;2024-01-27T07:51:29;6.40;99.90
782;DHT22;374;52.568;13.402;2024-01-27T07:53:55;6.40;99.90
782;DHT22;374;52.568;13.402;2024-01-27T07:56:20;6.40;99.90
782;DHT22;374;52.568;13.402;2024-01-27T07:58:46;6.40;99.90
782;DHT22;374;52.568;13.402;2024-01-27T08:01:15;6.30;99.90
782;DHT22;374;52.568;13.402;2024-01-27T08:03:41;6.30;99.90
782;DHT22;374;52.568;13.402;2024-01-27T08:06:07;6.30;99.90
782;DHT22;374;52.568;13.402;2024-01-27T08:08:35;6.40;99.90
782;DHT22;374;52.568;13.402;2024-01-27T08:11:01;6.40;99.90
782;DHT22;374;52.568;13.402;2024-01-27T08:13:26;6.40;99.90
782;DHT22;374;52.568;13.402;2024-01-27T08:15:52;6.30;99.90
782;DHT22;374;52.568;13.402;2024-01-27T08:18:17;6.30;99.90
782;DHT22;374;52.568;13.402;2024-01-27T08:20:43;6.30;99.90
782;DHT22;374;52.568;13.402;2024-01-27T08:23:08;6.40;99.90
782;DHT22;374;52.568;13.402;2024-01-27T08:25:34;6.40;99.90
782;DHT22;374;52.568;13.402;2024-01-27T08:28:00;6.40;99.90
782;DHT22;374;52.568;13.402;2024-01-27T08:30:25;6.40;99.90
782;DHT22;374;52.568;13.402;2024-01-27T08:32:50;6.40;99.90
782;DHT22;374;52.568;13.402;2024-01-27T08:35:16;6.40;99.90
782;DHT22;374;52.568;13.402;2024-01-27T08:37:41;6.40;99.90
782;DHT22;374;52.568;13.402;2024-01-27T08:40:08;6.40;99.90
782;DHT22;374;52.568;13.402;2024-01-27T08:42:34;6.40;99.90
782;DHT22;374;52.568;13.402;2024-01-27T08:45:00;6.40;99.90
782;DHT22;374;52.568;13.402;2024-01-27T08:47:25;6.40;99.90
782;DHT22;374;52.568;13.402;2024-01-27T08:49:51;6.40;99.90
782;DHT22;374;52.568;13.402;2024-01-27T08:52:16;6.40;99.90
782;DHT22;374;52.568;13.402;2024-01-27T08:54:42;6.40;99.90
782;DHT22;374;52.568;13.402;2024-01-27T08:57:07;6.40;99.90
782;DHT22;374;52.568;13.402;2024-01-27T08:59:33;6.40;99.90
782;DHT22;374;52.568;13.402;2024-01-27T09:01:59;6.40;99.90
782;DHT22;374;52.568;13.402;2024-01-27T09:04:24;6.40;99.90
782;DHT22;374;52.568;13.402;2024-01-27T09:06:50;6.40;99.90
782;DHT22;374;52.568;13.402;2024-01-27T09:09:15;6.40;99.90
782;DHT22;374;52.568;13.402;2024-01-27T09:11:41;6.40;99.90
782;DHT22;374;52.568;13.402;2024-01-27T09:14:07;6.40;99.90
782;DHT22;374;52.568;13.402;2024-01-27T09:16:33;6.40;99.90
782;DHT22;374;52.568;13.402;2024-01-27T09:18:58;6.40;99.90
782;DHT22;374;52.568;13.402;2024-01-27T09:21:24;6.40;99.90
782;DHT22;374;52.568;13.402;2024-01-27T09:23:54;6.40;99.90
782;DHT22;374;52.568;13.402;2024-01-27T09:26:20;6.40;99.90
782;DHT22;374;52.568;13.402;2024-01-27T09:28:48;6.40;99.90
782;DHT22;374;52.568;13.402;2024-01-27T09:31:20;6.40;99.90
782;DHT22;374;52.568;13.402;2024-01-27T09:33:48;6.40;99.90
782;DHT22;374;52.568;13.402;2024-01-27T09:36:13;6.40;99.90
782;DHT22;374;52.568;13.402;2024-01-27T09:38:39;6.40;99.90
782;DHT22;374;52.568;13.402;2024-01-27T09:41:04;6.50;99.90
782;DHT22;374;52.568;13.402;2024-01-27T09:43:31;6.50;99.90
782;DHT22;374;52.568;13.402;2024-01-27T09:45:57;6.50;99.90
782;DHT22;374;52.568;13.402;2024-01-27T09:48:23;6.40;99.90
782;DHT22;374;52.568;13.402;2024-01-27T09:50:49;6.40;99.90
782;DHT22;374;52.568;13.402;2024-01-27T09:53:16;6.50;99.90
782;DHT22;374;52.568;13.402;2024-01-27T09:55:43;6.50;99.90
782;DHT22;374;52.568;13.402;2024-01-27T09:58:09;6.50;99.90
782;DHT22;374;52.568;13.402;2024-01-27T10:00:36;6.50;99.90
782;DHT22;374;52.568;13.402;2024-01-27T10:03:03;6.50;99.90
782;DHT22;374;52.568;13.402;2024-01-27T10:05:31;6.50;99.90
782;DHT22;374;52.568;13.402;2024-01-27T10:07:57;6.50;99.90
782;DHT22;374;52.568;13.402;2024-01-27T10:10:22;6.50;99.90
782;DHT22;374;52.568;13.402;2024-01-27T10:12:48;6.50;99.90
782;DHT22;374;52.568;13.402;2024-01-27T10:15:20;6.50;99.90
782;DHT22;374;52.568;13.402;2024-01-27T10:17:46;6.50;99.90
782;DHT22;374;52.568;13.402;2024-01-27T10:20:12;6.50;99.90
782;DHT22;374;52.568;13.402;2024-01-27T10:22:41;6.50;99.90
782;DHT22;374;52.568;13.402;2024-01-27T10:25:08;6.50;99.90
782;DHT22;374;52.568;13.402;2024-01-27T10:27:34;6.50;99.90
782;DHT22;374;52.568;13.402;2024-01-27T10:29:59;6.60;99.90
782;DHT22;374;52.568;13.402;2024-01-27T10:32:25;6.50;99.90
782;DHT22;374;52.568;13.402;2024-01-27T10:35:04;6.50;99.90
782;DHT22;374;52.568;13.402;2024-01-27T10:37:30;6.50;99.90
782;DHT22;374;52.568;13.402;2024-01-27T10:40:08;6.50;99.90
782;DHT22;374;52.568;13.402;2024-01-27T10:42:35;6.50;99.90
782;DHT22;374;52.568;13.402;2024-01-27T10:45:02;6.60;99.90
782;DHT22;374;52.568;13.402;2024-01-27T10:47:30;6.60;99.90
782;DHT22;374;52.568;13.402;2024-01-27T10:49:57;6.50;99.90
782;DHT22;374;52.568;13.402;2024-01-27T10:52:33;6.60;99.90
782;DHT22;374;52.568;13.402;2024-01-27T10:55:01;6.60;99.90
782;DHT22;374;52.568;13.402;2024-01-27T10:57:30;6.50;99.90
782;DHT22;374;52.568;13.402;2024-01-27T10:59:56;6.60;99.90
782;DHT22;374;52.568;13.402;2024-01-27T11:02:27;6.60;99.90
782;DHT22;374;52.568;13.402;2024-01-27T11:04:53;6.60;99.90
782;DHT22;374;52.568;13.402;2024-01-27T11:07:20;6.60;99.90
782;DHT22;374;52.568;13.402;2024-01-27T11:09:49;6.60;99.90
782;DHT22;374;52.568;13.402;2024-01-27T11:12:19;6.60;99.90
782;DHT22;374;52.568;13.402;2024-01-27T11:14:49;6.60;99.90
782;DHT22;374;52.568;13.402;2024-01-27T11:17:17;6.60;99.90
782;DHT22;374;52.568;13.402;2024-01-27T11:19:49;6.60;99.90
782;DHT22;374;52.568;13.402;2024-01-27T11:22:24;6.60;99.90
782;DHT22;374;52.568;13.402;2024-01-27T11:25:16;6.60;99.90
782;DHT22;374;52.568;13.402;2024-01-27T11:27:44;6.60;99.90
782;DHT22;374;52.568;13.402;2024-01-27T11:30:30;6.60;99.90
782;DHT22;374;52.568;13.402;2024-01-27T11:33:01;6.60;99.90
782;DHT22;374;52.568;13.402;2024-01-27T11:35:26;6.70;99.90
782;DHT22;374;52.568;13.402;2024-01-27T11:37:54;6.60;99.90
782;DHT22;374;52.568;13.402;2024-01-27T11:40:20;6.70;99.90
782;DHT22;374;52.568;13.402;2024-01-27T11:43:00;6.60;99.90
782;DHT22;374;52.568;13.402;2024-01-27T11:45:26;6.70;99.90
782;DHT22;374;52.568;13.402;2024-01-27T11:47:55;6.70;99.90
782;DHT22;374;52.568;13.402;2024-01-27T11:50:21;6.70;99.90
782;DHT22;374;52.568;13.402;2024-01-27T11:52:46;6.70;99.90
782;DHT22;374;52.568;13.402;2024-01-27T11:55:12;6.70;99.90
782;DHT22;374;52.568;13.402;2024-01-27T11:57:41;6.70;99.90
782;DHT22;374;52.568;13.402;2024-01-27T12:00:15;6.70;99.90
782;DHT22;374;52.568;13.402;2024-01-27T12:02:41;6.70;99.90
782;DHT22;374;52.568;13.402;2024-01-27T12:05:08;6.70;99.90
782;DHT22;374;52.568;13.402;2024-01-27T12:07:34;6.70;99.90
782;DHT22;374;52.568;13.402;2024-01-27T12:09:59;6.70;99.90
782;DHT22;374;52.568;13.402;2024-01-27T12:12:25;6.70;99.90
782;DHT22;374;52.568;13.402;2024-01-27T12:14:51;6.70;99.90
782;DHT22;374;52.568;13.402;2024-01-27T12:17:17;6.70;99.90
782;DHT22;374;52.568;13.402;2024-01-27T12:19:50;6.70;99.90
782;DHT22;374;52.568;13.402;2024-01-27T12:22:24;6.70;99.90
782;DHT22;374;52.568;13.402;2024-01-27T12:25:08;6.80;99.90
782;DHT22;374;52.568;13.402;2024-01-27T12:27:35;6.80;99.90
782;DHT22;374;52.568;13.402;2024-01-27T12:30:01;6.80;99.90
782;DHT22;374;52.568;13.402;2024-01-27T12:32:31;6.70;99.90
782;DHT22;374;52.568;13.402;2024-01-27T12:34:57;6.80;99.90
782;DHT22;374;52.568;13.402;2024-01-27T12:37:25;6.80;99.90
782;DHT22;374;52.568;13.402;2024-01-27T12:39:51;6.80;99.90
782;DHT22;374;52.568;13.402;2024-01-27T12:42:17;6.80;99.90
782;DHT22;374;52.568;13.402;2024-01-27T12:44:43;6.70;99.90
782;DHT22;374;52.568;13.402;2024-01-27T12:47:12;6.70;99.90
782;DHT22;374;52.568;13.402;2024-01-27T12:49:39;6.80;99.90
782;DHT22;374;52.568;13.402;2024-01-27T12:52:06;6.80;99.90
782;DHT22;374;52.568;13.402;2024-01-27T12:54:32;6.80;99.90
782;DHT22;374;52.568;13.402;2024-01-27T12:56:57;6.80;99.90
782;DHT22;374;52.568;13.402;2024-01-27T12:59:23;6.80;99.90
782;DHT22;374;52.568;13.402;2024-01-27T13:01:49;6.80;99.90
782;DHT22;374;52.568;13.402;2024-01-27T13:04:15;6.80;99.90
782;DHT22;374;52.568;13.402;2024-01-27T13:06:43;6.80;99.90
782;DHT22;374;52.568;13.402;2024-01-27T13:09:08;6.80;99.90
782;DHT22;374;52.568;13.402;2024-01-27T13:11:38;6.80;99.90
782;DHT22;374;52.568;13.402;2024-01-27T13:14:03;6.80;99.90
782;DHT22;374;52.568;13.402;2024-01-27T13:16:30;6.80;99.90
782;DHT22;374;52.568;13.402;2024-01-27T13:18:55;6.80;99.90
782;DHT22;374;52.568;13.402;2024-01-27T13:21:20;6.80;99.90
782;DHT22;374;52.568;13.402;2024-01-27T13:23:46;6.80;99.90
782;DHT22;374;52.568;13.402;2024-01-27T13:26:12;6.80;99.90
782;DHT22;374;52.568;13.402;2024-01-27T13:28:37;6.80;99.90
782;DHT22;374;52.568;13.402;2024-01-27T13:31:03;6.80;99.90
782;DHT22;374;52.568;13.402;2024-01-27T13:33:30;6.90;99.90
782;DHT22;374;52.568;13.402;2024-01-27T13:35:55;6.80;99.90
782;DHT22;374;52.568;13.402;2024-01-27T13:38:21;6.80;99.90
782;DHT22;374;52.568;13.402;2024-01-27T13:40:49;6.90;99.90
782;DHT22;374;52.568;13.402;2024-01-27T13:43:18;6.90;99.90
782;DHT22;374;52.568;13.402;2024-01-27T13:45:43;6.90;99.90
782;DHT22;374;52.568;13.402;2024-01-27T13:48:09;6.90;99.90
782;DHT22;374;52.568;13.402;2024-01-27T13:50:35;6.90;99.90
782;DHT22;374;52.568;13.402;2024-01-27T13:53:00;6.90;99.90
782;DHT22;374;52.568;13.402;2024-01-27T13:55:26;6.90;99.90
782;DHT22;374;52.568;13.402;2024-01-27T13:57:52;6.90;99.90
782;DHT22;374;52.568;13.402;2024-01-27T14:00:18;6.90;99.90
782;DHT22;374;52.568;13.402;2024-01-27T14:02:45;6.90;99.90
782;DHT22;374;52.568;13.402;2024-01-27T14:05:11;6.90;99.90
782;DHT22;374;52.568;13.402;2024-01-27T14:07:37;6.90;99.90
782;DHT22;374;52.568;13.402;2024-01-27T14:10:02;7.00;99.90
782;DHT22;374;52.568;13.402;2024-01-27T14:12:31;6.90;99.90
782;DHT22;374;52.568;13.402;2024-01-27T14:15:06;6.90;99.90
782;DHT22;374;52.568;13.402;2024-01-27T14:17:33;6.90;99.90
782;DHT22;374;52.568;13.402;2024-01-27T14:20:00;7.00;99.90
782;DHT22;374;52.568;13.402;2024-01-27T14:22:25;7.00;99.90
782;DHT22;374;52.568;13.402;2024-01-27T14:24:51;6.90;99.90
782;DHT22;374;52.568;13.402;2024-01-27T14:27:16;7.00;99.90
782;DHT22;374;52.568;13.402;2024-01-27T14:29:43;7.00;99.90
782;DHT22;374;52.568;13.402;2024-01-27T14:32:08;7.00;99.90
782;DHT22;374;52.568;13.402;2024-01-27T14:34:34;7.00;99.90
782;DHT22;374;52.568;13.402;2024-01-27T14:36:59;7.00;99.90
782;DHT22;374;52.568;13.402;2024-01-27T14:39:30;7.00;99.90
782;DHT22;374;52.568;13.402;2024-01-27T14:41:56;7.00;99.90
782;DHT22;374;52.568;13.402;2024-01-27T14:44:21;7.00;99.90
782;DHT22;374;52.568;13.402;2024-01-27T14:46:47;7.00;99.90
782;DHT22;374;52.568;13.402;2024-01-27T14:49:12;7.00;99.90
782;DHT22;374;52.568;13.402;2024-01-27T14:51:38;7.00;99.90
782;DHT22;374;52.568;13.402;2024-01-27T14:54:04;7.00;99.90
782;DHT22;374;52.568;13.402;2024-01-27T14:56:30;7.00;99.90
782;DHT22;374;52.568;13.402;2024-01-27T14:59:00;7.00;99.90
782;DHT22;374;52.568;13.402;2024-01-27T15:01:25;7.10;99.90
782;DHT22;374;52.568;13.402;2024-01-27T15:03:52;7.00;99.90
782;DHT22;374;52.568;13.402;2024-01-27T15:06:18;7.00;99.90
782;DHT22;374;52.568;13.402;2024-01-27T15:08:43;7.00;99.90
782;DHT22;374;52.568;13.402;2024-01-27T15:11:11;7.00;99.90
782;DHT22;374;52.568;13.402;2024-01-27T15:13:36;7.00;99.90
782;DHT22;374;52.568;13.402;2024-01-27T15:16:02;7.00;99.90
782;DHT22;374;52.568;13.402;2024-01-27T15:18:28;7.10;99.90
782;DHT22;374;52.568;13.402;2024-01-27T15:20:53;7.10;99.90
782;DHT22;374;52.568;13.402;2024-01-27T15:23:19;7.10;99.90
782;DHT22;374;52.568;13.402;2024-01-27T15:25:46;7.10;99.90
782;DHT22;374;52.568;13.402;2024-01-27T15:28:13;7.10;99.90
782;DHT22;374;52.568;13.402;2024-01-27T15:30:41;7.10;99.90
782;DHT22;374;52.568;13.402;2024-01-27T15:33:07;7.10;99.90
782;DHT22;374;52.568;13.402;2024-01-27T15:35:32;7.10;99.90
782;DHT22;374;52.568;13.402;2024-01-27T15:38:05;7.10;99.90
782;DHT22;374;52.568;13.402;2024-01-27T15:40:43;7.10;99.90
782;DHT22;374;52.568;13.402;2024-01-27T15:43:11;7.10;99.90
782;DHT22;374;52.568;13.402;2024-01-27T15:45:36;7.10;99.90
782;DHT22;374;52.568;13.402;2024-01-27T15:48:04;7.10;99.90
782;DHT22;374;52.568;13.402;2024-01-27T15:50:30;7.10;99.90
782;DHT22;374;52.568;13.402;2024-01-27T15:52:57;7.10;99.90
782;DHT22;374;52.568;13.402;2024-01-27T15:55:23;7.10;99.90
782;DHT22;374;52.568;13.402;2024-01-27T15:57:49;7.10;99.90
782;DHT22;374;52.568;13.402;2024-01-27T16:00:16;7.10;99.90
782;DHT22;374;52.568;13.402;2024-01-27T16:02:41;7.20;99.90
782;DHT22;374;52.568;13.402;2024-01-27T16:05:07;7.10;99.90
782;DHT22;374;52.568;13.402;2024-01-27T16:07:32;7.20;99.90
782;DHT22;374;52.568;13.402;2024-01-27T16:09:58;7.20;99.90
782;DHT22;374;52.568;13.402;2024-01-27T16:12:28;7.10;99.90
782;DHT22;374;52.568;13.402;2024-01-27T16:14:53;7.20;99.90
782;DHT22;374;52.568;13.402;2024-01-27T16:17:19;7.20;99.90
782;DHT22;374;52.568;13.402;2024-01-27T16:19:50;7.10;99.90
782;DHT22;374;52.568;13.402;2024-01-27T16:22:16;7.20;99.90
782;DHT22;374;52.568;13.402;2024-01-27T16:24:43;7.20;99.90
782;DHT22;374;52.568;13.402;2024-01-27T16:27:08;7.20;99.90
782;DHT22;374;52.568;13.402;2024-01-27T16:29:34;7.10;99.90